createdAt,value
2018-05-17T00:00:42.090Z,100419.41
2018-05-17T00:03:09.882Z,100423.42
2018-05-17T00:05:37.742Z,100428.11
2018-05-17T00:08:05.514Z,100423.77
2018-05-17T00:10:33.326Z,100425.95
2018-05-17T00:13:01.040Z,100419.00
2018-05-17T00:15:28.859Z,100417.23
2018-05-17T00:17:56.674Z,100424.11
2018-05-17T00:20:24.540Z,100426.13
2018-05-17T00:22:52.408Z,100434.91
2018-05-17T00:25:20.226Z,100430.95
2018-05-17T00:27:48.040Z,100425.00
2018-05-17T00:30:15.799Z,100433.17
2018-05-17T00:32:43.464Z,100448.02
2018-05-17T00:35:11.229Z,100443.72
2018-05-17T00:37:38.995Z,100439.44
2018-05-17T00:40:06.863Z,100432.12
2018-05-17T00:42:34.569Z,100430.63
2018-05-17T00:45:02.480Z,100435.83
2018-05-17T00:47:30.325Z,100429.38
2018-05-17T00:49:58.127Z,100429.15
2018-05-17T00:52:26.002Z,100431.49
2018-05-17T00:54:53.761Z,100434.90
2018-05-17T00:57:21.626Z,100441.78
2018-05-17T00:59:49.283Z,100446.11
2018-05-17T01:02:17.255Z,100445.34
2018-05-17T01:04:44.966Z,100450.20
2018-05-17T01:07:12.709Z,100452.33
2018-05-17T01:09:40.343Z,100453.73
2018-05-17T01:12:08.163Z,100452.31
2018-05-17T01:14:36.132Z,100452.50
2018-05-17T01:17:03.944Z,100451.88
2018-05-17T01:19:31.666Z,100451.25
2018-05-17T01:21:59.375Z,100453.13
2018-05-17T01:24:27.110Z,100452.84
2018-05-17T01:26:54.867Z,100449.90
2018-05-17T01:29:22.664Z,100448.73
2018-05-17T01:31:50.633Z,100451.80
2018-05-17T01:34:18.565Z,100445.67
2018-05-17T01:36:58.348Z,100445.62
2018-05-17T01:39:26.107Z,100444.00
2018-05-17T01:41:54.083Z,100427.32
2018-05-17T01:44:21.810Z,100440.02
2018-05-17T01:46:49.525Z,100436.09
2018-05-17T01:49:17.265Z,100427.45
2018-05-17T01:51:45.143Z,100427.62
2018-05-17T01:54:12.851Z,100433.40
2018-05-17T01:56:40.671Z,100426.91
2018-05-17T01:59:08.382Z,100421.09
2018-05-17T02:01:36.305Z,100423.23
2018-05-17T02:04:04.167Z,100419.40
2018-05-17T02:06:31.836Z,100419.10
2018-05-17T02:08:59.697Z,100437.74
2018-05-17T02:11:27.417Z,100430.07
2018-05-17T02:13:55.182Z,100418.02
2018-05-17T02:16:22.990Z,100426.23
2018-05-17T02:18:50.960Z,100427.69
2018-05-17T02:21:18.724Z,100425.48
2018-05-17T02:23:46.674Z,100423.44
2018-05-17T02:26:14.358Z,100435.25
2018-05-17T02:28:42.222Z,100430.94
2018-05-17T02:31:10.092Z,100424.25
2018-05-17T02:33:37.955Z,100438.28
2018-05-17T02:36:05.823Z,100420.90
2018-05-17T02:38:33.895Z,100416.77
2018-05-17T02:41:01.738Z,100422.35
2018-05-17T02:43:29.423Z,100418.95
2018-05-17T02:45:57.189Z,100408.41
2018-05-17T02:48:25.159Z,100404.31
2018-05-17T02:50:52.925Z,100401.95
2018-05-17T02:53:20.579Z,100408.59
2018-05-17T02:55:48.350Z,100412.18
2018-05-17T02:58:16.221Z,100419.17
2018-05-17T03:00:43.946Z,100424.78
2018-05-17T03:03:11.662Z,100431.67
2018-05-17T03:05:39.511Z,100445.28
2018-05-17T03:08:07.246Z,100439.23
2018-05-17T03:10:34.932Z,100434.84
2018-05-17T03:13:02.803Z,100431.05
2018-05-17T03:15:30.517Z,100443.61
2018-05-17T03:17:58.435Z,100439.55
2018-05-17T03:20:26.200Z,100457.34
2018-05-17T03:22:53.992Z,100446.08
2018-05-17T03:25:21.830Z,100445.93
2018-05-17T03:27:49.599Z,100449.96
2018-05-17T03:30:17.566Z,100458.71
2018-05-17T03:32:45.221Z,100452.30
2018-05-17T03:35:13.093Z,100460.74
2018-05-17T03:37:40.823Z,100454.19
2018-05-17T03:40:08.561Z,100459.97
2018-05-17T03:42:36.411Z,100459.83
2018-05-17T03:45:04.166Z,100463.98
2018-05-17T03:47:31.859Z,100460.05
2018-05-17T03:49:59.679Z,100463.69
2018-05-17T03:52:27.444Z,100461.88
2018-05-17T03:54:55.309Z,100461.53
2018-05-17T03:57:23.895Z,100458.82
2018-05-17T03:59:51.761Z,100459.44
2018-05-17T04:02:31.405Z,100458.03
2018-05-17T04:08:05.436Z,100464.09
2018-05-17T04:10:33.303Z,100455.34
2018-05-17T04:13:00.965Z,100453.59
2018-05-17T04:15:28.836Z,100465.39
2018-05-17T04:17:56.673Z,100457.72
2018-05-17T04:20:24.416Z,100458.85
2018-05-17T04:22:52.184Z,100455.56
2018-05-17T04:25:19.993Z,100464.56
2018-05-17T04:27:47.758Z,100465.62
2018-05-17T04:30:15.516Z,100455.27
2018-05-17T04:32:43.373Z,100448.85
2018-05-17T04:35:11.115Z,100437.97
2018-05-17T04:37:38.920Z,100440.63
2018-05-17T04:40:06.891Z,100457.06
2018-05-17T04:42:34.756Z,100446.67
2018-05-17T04:45:02.524Z,100456.34
2018-05-17T04:47:30.500Z,100475.69
2018-05-17T04:49:58.212Z,100478.54
2018-05-17T04:52:26.016Z,100489.15
2018-05-17T04:54:53.780Z,100488.19
2018-05-17T04:57:21.649Z,100486.76
2018-05-17T04:59:49.353Z,100482.33
2018-05-17T05:02:17.177Z,100487.04
2018-05-17T05:04:44.941Z,100477.09
2018-05-17T05:07:12.754Z,100461.19
2018-05-17T05:09:40.574Z,100476.04
2018-05-17T05:12:08.439Z,100476.60
2018-05-17T05:14:36.207Z,100474.06
2018-05-17T05:17:04.019Z,100480.47
2018-05-17T05:19:31.835Z,100497.54
2018-05-17T05:21:59.825Z,100483.45
2018-05-17T05:24:27.672Z,100483.88
2018-05-17T05:26:55.641Z,100470.82
2018-05-17T05:29:23.406Z,100468.89
2018-05-17T05:31:51.270Z,100462.82
2018-05-17T05:34:18.989Z,100457.41
2018-05-17T05:36:47.317Z,100457.27
2018-05-17T05:39:15.285Z,100464.53
2018-05-17T05:41:43.105Z,100466.00
2018-05-17T05:44:10.996Z,100467.13
2018-05-17T05:46:38.708Z,100481.09
2018-05-17T05:55:04.263Z,100514.34
2018-05-17T05:57:32.020Z,100498.91
2018-05-17T05:59:59.625Z,100521.19
2018-05-17T06:02:27.454Z,100527.05
2018-05-17T06:04:55.215Z,100515.42
2018-05-17T06:07:22.918Z,100529.52
2018-05-17T06:09:50.640Z,100517.16
2018-05-17T06:12:18.351Z,100538.83
2018-05-17T06:14:46.168Z,100527.13
2018-05-17T06:17:13.937Z,100522.07
2018-05-17T06:19:41.804Z,100523.80
2018-05-17T06:22:09.569Z,100527.39
2018-05-17T06:24:37.329Z,100529.38
2018-05-17T06:27:05.049Z,100522.07
2018-05-17T06:29:32.860Z,100537.55
2018-05-17T06:32:00.624Z,100538.14
2018-05-17T06:34:28.491Z,100526.85
2018-05-17T06:36:56.255Z,100533.13
2018-05-17T06:39:23.981Z,100524.39
2018-05-17T06:41:51.681Z,100518.73
2018-05-17T06:44:19.551Z,100526.68
2018-05-17T06:46:47.210Z,100525.28
2018-05-17T06:49:14.976Z,100527.30
2018-05-17T06:51:42.688Z,100535.45
2018-05-17T06:54:10.401Z,100545.46
2018-05-17T06:56:38.165Z,100556.03
2018-05-17T06:59:06.033Z,100548.77
2018-05-17T07:01:33.820Z,100572.22
2018-05-17T07:04:01.562Z,100561.89
2018-05-17T07:06:29.287Z,100575.78
2018-05-17T07:08:57.049Z,100576.78
2018-05-17T07:11:24.845Z,100589.97
2018-05-17T07:13:52.562Z,100590.30
2018-05-17T07:16:20.211Z,100596.87
2018-05-17T07:18:48.210Z,100610.14
2018-05-17T07:21:15.626Z,100602.96
2018-05-17T07:23:43.226Z,100608.06
2018-05-17T07:26:10.878Z,100618.22
2018-05-17T07:28:38.482Z,100617.70
2018-05-17T07:31:06.156Z,100609.67
2018-05-17T07:33:33.767Z,100605.58
2018-05-17T07:36:01.580Z,100613.85
2018-05-17T07:38:29.189Z,100625.54
2018-05-17T07:40:56.923Z,100621.11
2018-05-17T07:43:24.568Z,100637.02
2018-05-17T07:45:52.224Z,100627.97
2018-05-17T07:48:20.198Z,100631.09
2018-05-17T07:50:47.900Z,100624.94
2018-05-17T07:53:16.798Z,100637.06
2018-05-17T07:55:44.514Z,100638.92
2018-05-17T07:58:12.129Z,100641.09
2018-05-17T08:00:39.774Z,100642.98
2018-05-17T08:03:07.378Z,100640.24
2018-05-17T08:05:35.046Z,100649.41
2018-05-17T08:08:02.698Z,100644.99
2018-05-17T08:10:30.315Z,100646.88
2018-05-17T08:12:57.960Z,100642.45
2018-05-17T08:15:25.575Z,100641.32
2018-05-17T08:17:59.671Z,100642.95
2018-05-17T08:20:27.298Z,100648.98
2018-05-17T08:22:54.948Z,100637.70
2018-05-17T08:25:22.626Z,100650.50
2018-05-17T08:27:50.276Z,100655.47
2018-05-17T08:30:17.899Z,100654.83
2018-05-17T08:32:45.590Z,100655.91
2018-05-17T08:35:13.317Z,100651.61
2018-05-17T08:37:41.121Z,100646.90
2018-05-17T08:40:08.731Z,100658.76
2018-05-17T08:42:36.440Z,100657.16
2018-05-17T08:45:04.036Z,100657.43
2018-05-17T08:47:31.873Z,100656.77
2018-05-17T08:49:59.592Z,100666.44
2018-05-17T08:52:27.296Z,100653.66
2018-05-17T08:54:55.063Z,100657.37
2018-05-17T08:57:22.826Z,100666.66
2018-05-17T08:59:50.499Z,100671.03
2018-05-17T09:02:18.145Z,100666.67
2018-05-17T09:04:45.762Z,100682.55
2018-05-17T09:07:13.577Z,100661.20
2018-05-17T09:09:41.238Z,100673.97
2018-05-17T09:12:08.881Z,100662.98
2018-05-17T09:14:36.536Z,100665.78
2018-05-17T09:17:04.150Z,100664.61
2018-05-17T09:19:31.992Z,100662.44
2018-05-17T09:21:59.610Z,100663.95
2018-05-17T09:24:27.267Z,100659.61
2018-05-17T09:26:54.878Z,100667.59
2018-05-17T09:29:22.566Z,100661.86
2018-05-17T09:31:50.303Z,100655.14
2018-05-17T09:34:17.977Z,100655.70
2018-05-17T09:36:45.631Z,100660.16
2018-05-17T09:39:13.278Z,100657.55
2018-05-17T09:41:40.885Z,100649.13
2018-05-17T09:44:08.562Z,100642.98
2018-05-17T09:46:36.185Z,100653.14
2018-05-17T09:49:03.868Z,100649.69
2018-05-17T09:51:31.700Z,100634.91
2018-05-17T09:53:59.360Z,100654.63
2018-05-17T09:56:27.018Z,100652.05
2018-05-17T09:58:54.689Z,100663.05
2018-05-17T10:01:22.503Z,100668.30
2018-05-17T10:03:50.319Z,100659.34
2018-05-17T10:06:18.722Z,100680.20
2018-05-17T10:08:46.373Z,100669.44
2018-05-17T10:11:14.123Z,100682.86
2018-05-17T10:13:41.841Z,100684.74
2018-05-17T10:16:09.653Z,100681.97
2018-05-17T10:18:37.416Z,100677.80
2018-05-17T10:21:05.079Z,100671.80
2018-05-17T10:23:32.845Z,100672.78
2018-05-17T10:26:00.498Z,100680.59
2018-05-17T10:28:28.115Z,100675.36
2018-05-17T10:30:55.919Z,100672.81
2018-05-17T10:33:23.493Z,100680.28
2018-05-17T10:35:51.256Z,100686.98
2018-05-17T10:38:18.877Z,100686.47
2018-05-17T10:40:46.683Z,100681.82
2018-05-17T10:43:14.299Z,100689.67
2018-05-17T10:45:42.007Z,100695.17
2018-05-17T10:48:09.873Z,100689.62
2018-05-17T10:50:37.522Z,100697.70
2018-05-17T10:53:05.301Z,100701.03
2018-05-17T10:55:33.126Z,100706.06
2018-05-17T10:58:00.932Z,100696.73
2018-05-17T11:00:28.757Z,100702.52
2018-05-17T11:02:56.563Z,100704.77
2018-05-17T11:05:24.429Z,100702.62
2018-05-17T11:07:52.195Z,100710.82
2018-05-17T11:10:20.063Z,100717.06
2018-05-17T11:12:47.826Z,100719.79
2018-05-17T11:15:15.786Z,100721.11
2018-05-17T11:17:43.465Z,100714.16
2018-05-17T11:20:11.222Z,100720.52
2018-05-17T11:22:39.092Z,100724.21
2018-05-17T11:25:06.804Z,100709.03
2018-05-17T11:27:34.571Z,100709.86
2018-05-17T11:30:02.399Z,100707.09
2018-05-17T11:32:30.144Z,100701.61
2018-05-17T11:34:57.867Z,100703.70
2018-05-17T11:37:25.636Z,100706.51
2018-05-17T11:39:53.401Z,100705.13
2018-05-17T11:42:21.103Z,100704.16
2018-05-17T11:44:48.871Z,100693.94
2018-05-17T11:47:16.531Z,100687.87
2018-05-17T11:49:44.151Z,100694.72
2018-05-17T11:52:11.808Z,100691.66
2018-05-17T11:54:39.426Z,100683.16
2018-05-17T11:57:07.100Z,100690.08
2018-05-17T11:59:34.737Z,100673.00
2018-05-17T12:02:02.394Z,100687.39
2018-05-17T12:04:30.120Z,100691.47
2018-05-17T12:06:57.815Z,100689.88
2018-05-17T12:09:25.463Z,100691.40
2018-05-17T12:11:53.120Z,100687.77
2018-05-17T12:14:20.736Z,100688.55
2018-05-17T12:16:48.395Z,100686.52
2018-05-17T12:19:16.011Z,100681.88
2018-05-17T12:21:43.665Z,100685.97
2018-05-17T12:24:11.461Z,100676.98
2018-05-17T12:26:39.327Z,100678.56
2018-05-17T12:29:07.035Z,100686.94
2018-05-17T12:31:34.929Z,100678.56
2018-05-17T12:34:02.830Z,100692.47
2018-05-17T12:36:30.443Z,100691.59
2018-05-17T12:38:58.104Z,100681.02
2018-05-17T12:41:25.917Z,100679.89
2018-05-17T12:43:53.575Z,100688.80
2018-05-17T12:46:21.332Z,100688.19
2018-05-17T12:48:49.155Z,100685.22
2018-05-17T12:51:16.967Z,100683.86
2018-05-17T12:53:44.784Z,100681.39
2018-05-17T12:56:12.403Z,100686.18
2018-05-17T12:58:40.123Z,100688.53
2018-05-17T13:01:07.883Z,100684.78
2018-05-17T13:03:35.693Z,100678.31
2018-05-17T13:06:03.457Z,100670.80
2018-05-17T13:08:31.323Z,100674.73
2018-05-17T13:10:59.051Z,100676.40
2018-05-17T13:13:27.160Z,100670.45
2018-05-17T13:15:54.774Z,100673.09
2018-05-17T13:18:22.486Z,100665.40
2018-05-17T13:20:50.145Z,100667.70
2018-05-17T13:23:17.886Z,100666.55
2018-05-17T13:25:45.565Z,100667.08
2018-05-17T13:28:13.296Z,100667.14
2018-05-17T13:30:41.000Z,100664.66
2018-05-17T13:33:08.867Z,100667.41
2018-05-17T13:35:36.524Z,100653.44
2018-05-17T13:38:04.244Z,100661.88
2018-05-17T13:40:32.005Z,100657.26
2018-05-17T13:42:59.823Z,100660.19
2018-05-17T13:45:27.692Z,100657.69
2018-05-17T13:47:55.512Z,100651.13
2018-05-17T13:50:23.147Z,100653.60
2018-05-17T13:52:50.763Z,100644.27
2018-05-17T13:55:18.749Z,100644.42
2018-05-17T13:57:46.554Z,100641.83
2018-05-17T14:00:14.210Z,100650.21
2018-05-17T14:02:41.894Z,100635.67
2018-05-17T14:05:09.595Z,100637.58
2018-05-17T14:07:37.207Z,100645.30
2018-05-17T14:10:04.856Z,100649.55
2018-05-17T14:12:32.591Z,100645.59
2018-05-17T14:15:00.454Z,100645.19
2018-05-17T14:17:28.356Z,100642.88
2018-05-17T14:19:56.003Z,100641.99
2018-05-17T14:22:23.646Z,100647.02
2018-05-17T14:24:51.512Z,100649.20
2018-05-17T14:27:19.257Z,100649.20
2018-05-17T14:29:47.042Z,100652.19
2018-05-17T14:32:14.909Z,100644.37
2018-05-17T14:34:42.562Z,100645.88
2018-05-17T14:37:10.335Z,100650.52
2018-05-17T14:39:38.037Z,100644.19
2018-05-17T14:42:05.965Z,100651.33
2018-05-17T14:44:33.627Z,100639.91
2018-05-17T14:47:01.339Z,100643.61
2018-05-17T14:49:29.157Z,100631.15
2018-05-17T14:51:57.030Z,100641.48
2018-05-17T14:54:24.787Z,100645.03
2018-05-17T14:56:52.657Z,100643.98
2018-05-17T14:59:21.345Z,100648.23
2018-05-17T15:01:49.211Z,100646.15
2018-05-17T15:04:16.933Z,100659.20
2018-05-17T15:06:44.739Z,100642.78
2018-05-17T15:09:12.469Z,100641.80
2018-05-17T15:11:40.165Z,100643.14
2018-05-17T15:14:07.930Z,100643.08
2018-05-17T15:16:35.589Z,100648.33
2018-05-17T15:19:03.309Z,100651.95
2018-05-17T15:21:31.119Z,100652.62
2018-05-17T15:23:58.854Z,100645.73
2018-05-17T15:26:26.648Z,100643.02
2018-05-17T15:28:54.311Z,100641.34
2018-05-17T15:31:22.043Z,100643.64
2018-05-17T15:33:49.829Z,100639.41
2018-05-17T15:36:17.652Z,100646.53
2018-05-17T15:38:45.470Z,100642.39
2018-05-17T15:41:13.187Z,100645.58
2018-05-17T15:43:40.891Z,100631.69
2018-05-17T15:46:08.663Z,100636.12
2018-05-17T15:48:36.326Z,100643.47
2018-05-17T15:51:04.056Z,100635.53
2018-05-17T15:53:31.858Z,100639.33
2018-05-17T15:55:59.515Z,100644.46
2018-05-17T15:58:27.280Z,100646.63
2018-05-17T16:00:55.045Z,100638.55
2018-05-17T16:03:22.809Z,100635.76
2018-05-17T16:05:50.633Z,100641.95
2018-05-17T16:08:18.319Z,100641.98
2018-05-17T16:10:45.935Z,100640.48
2018-05-17T16:13:13.711Z,100634.86
2018-05-17T16:15:41.725Z,100648.89
2018-05-17T16:18:09.580Z,100649.91
2018-05-17T16:20:37.310Z,100645.50
2018-05-17T16:23:05.026Z,100648.64
2018-05-17T16:25:32.794Z,100648.66
2018-05-17T16:28:00.660Z,100644.89
2018-05-17T16:30:28.381Z,100645.24
2018-05-17T16:32:56.187Z,100642.49
2018-05-17T16:35:23.913Z,100648.21
2018-05-17T16:37:51.717Z,100646.91
2018-05-17T16:40:19.481Z,100646.68
2018-05-17T16:42:47.255Z,100651.44
2018-05-17T16:45:15.010Z,100646.22
2018-05-17T16:47:42.777Z,100649.14
2018-05-17T16:50:10.539Z,100651.04
2018-05-17T16:52:38.379Z,100643.27
2018-05-17T16:55:05.967Z,100639.75
2018-05-17T16:57:33.628Z,100642.48
2018-05-17T17:00:01.291Z,100647.10
2018-05-17T17:02:28.948Z,100638.57
2018-05-17T17:04:56.696Z,100651.48
2018-05-17T17:07:24.482Z,100648.61
2018-05-17T17:09:52.554Z,100643.62
2018-05-17T17:12:20.265Z,100646.38
2018-05-17T17:14:48.021Z,100641.95
2018-05-17T17:17:15.847Z,100644.70
2018-05-17T17:19:43.612Z,100635.42
2018-05-17T17:22:11.685Z,100649.89
2018-05-17T17:24:39.555Z,100646.42
2018-05-17T17:27:08.141Z,100647.36
2018-05-17T17:29:36.108Z,100648.77
2018-05-17T17:32:03.941Z,100646.15
2018-05-17T17:34:32.462Z,100644.75
2018-05-17T17:37:00.565Z,100639.12
2018-05-17T17:39:28.401Z,100641.03
2018-05-17T17:41:56.161Z,100642.20
2018-05-17T17:44:23.815Z,100644.86
2018-05-17T17:46:51.581Z,100653.80
2018-05-17T17:49:19.343Z,100652.27
2018-05-17T17:51:47.109Z,100648.68
2018-05-17T17:54:14.875Z,100646.44
2018-05-17T17:56:42.532Z,100640.67
2018-05-17T17:59:10.194Z,100648.24
2018-05-17T18:01:37.930Z,100645.39
2018-05-17T18:04:05.728Z,100637.60
2018-05-17T18:06:33.597Z,100639.10
2018-05-17T18:09:01.252Z,100642.57
2018-05-17T18:11:29.068Z,100643.12
2018-05-17T18:13:56.786Z,100637.84
2018-05-17T18:16:24.551Z,100643.33
2018-05-17T18:18:52.314Z,100644.85
2018-05-17T18:21:20.035Z,100646.25
2018-05-17T18:23:47.843Z,100650.29
2018-05-17T18:26:15.509Z,100646.16
2018-05-17T18:28:43.167Z,100645.94
2018-05-17T18:31:11.038Z,100651.19
2018-05-17T18:33:38.700Z,100652.85
2018-05-17T18:36:06.564Z,100656.67
2018-05-17T18:38:34.231Z,100662.88
2018-05-17T18:41:02.096Z,100658.67
2018-05-17T18:43:29.811Z,100657.02
2018-05-17T18:45:57.509Z,100663.58
2018-05-17T18:48:25.183Z,100666.03
2018-05-17T18:50:52.892Z,100661.41
2018-05-17T18:53:20.710Z,100668.96
2018-05-17T18:55:48.570Z,100666.52
2018-05-17T18:58:16.338Z,100660.62
2018-05-17T19:00:43.941Z,100676.42
2018-05-17T19:03:11.768Z,100667.74
2018-05-17T19:05:39.427Z,100673.81
2018-05-17T19:08:07.195Z,100674.55
2018-05-17T19:10:34.814Z,100678.02
2018-05-17T19:13:02.518Z,100683.48
2018-05-17T19:15:30.389Z,100682.09
2018-05-17T19:17:58.247Z,100677.71
2018-05-17T19:20:25.935Z,100680.48
2018-05-17T19:22:53.678Z,100686.73
2018-05-17T19:25:21.444Z,100691.30
2018-05-17T19:27:49.539Z,100688.63
2018-05-17T19:30:17.281Z,100689.28
2018-05-17T19:32:45.098Z,100695.09
2018-05-17T19:35:12.912Z,100694.76
2018-05-17T19:37:40.780Z,100696.84
2018-05-17T19:40:08.545Z,100695.11
2018-05-17T19:42:36.412Z,100703.81
2018-05-17T19:45:04.131Z,100708.88
2018-05-17T19:47:31.836Z,100707.06
2018-05-17T19:49:59.602Z,100703.92
2018-05-17T19:52:27.265Z,100703.45
2018-05-17T19:54:54.927Z,100698.84
2018-05-17T19:57:22.693Z,100703.38
2018-05-17T19:59:50.409Z,100699.04
2018-05-17T20:02:18.220Z,100702.07
2018-05-17T20:04:46.086Z,100699.31
2018-05-17T20:07:13.748Z,100690.48
2018-05-17T20:09:41.409Z,100702.66
2018-05-17T20:12:09.174Z,100697.81
2018-05-17T20:14:36.939Z,100704.31
2018-05-17T20:17:04.706Z,100709.73
2018-05-17T20:19:32.571Z,100711.36
2018-05-17T20:22:00.230Z,100706.83
2018-05-17T20:24:29.092Z,100705.67
2018-05-17T20:26:56.774Z,100709.27
2018-05-17T20:29:24.755Z,100702.30
2018-05-17T20:31:52.520Z,100708.97
2018-05-17T20:34:20.283Z,100702.64
2018-05-17T20:36:48.091Z,100707.37
2018-05-17T20:39:15.706Z,100701.39
2018-05-17T20:41:43.480Z,100712.78
2018-05-17T20:44:11.446Z,100706.84
2018-05-17T20:46:39.213Z,100711.36
2018-05-17T20:49:07.076Z,100714.55
2018-05-17T20:51:34.739Z,100717.05
2018-05-17T20:54:02.809Z,100713.48
2018-05-17T20:56:30.518Z,100708.89
2018-05-17T20:58:58.339Z,100708.14
2018-05-17T21:01:26.103Z,100718.98
2018-05-17T21:03:54.175Z,100718.48
2018-05-17T21:06:21.944Z,100724.84
2018-05-17T21:08:49.945Z,100721.24
2018-05-17T21:11:17.881Z,100720.88
2018-05-17T21:13:45.604Z,100715.44
2018-05-17T21:16:13.398Z,100724.20
2018-05-17T21:18:41.215Z,100720.00
2018-05-17T21:21:08.940Z,100726.01
2018-05-17T21:23:36.547Z,100729.34
2018-05-17T21:26:04.204Z,100720.72
2018-05-17T21:28:31.818Z,100726.08
2018-05-17T21:30:59.462Z,100728.79
2018-05-17T21:33:27.067Z,100728.67
2018-05-17T21:35:54.777Z,100725.30
2018-05-17T21:38:22.523Z,100735.98
2018-05-17T21:40:50.227Z,100730.91
2018-05-17T21:43:17.999Z,100728.87
2018-05-17T21:45:45.725Z,100724.11
2018-05-17T21:48:13.466Z,100734.08
2018-05-17T21:50:41.292Z,100727.27
2018-05-17T21:53:08.953Z,100727.80
2018-05-17T21:55:36.956Z,100721.02
2018-05-17T21:58:04.630Z,100727.64
2018-05-17T22:00:32.273Z,100724.77
2018-05-17T22:03:00.114Z,100731.90
2018-05-17T22:05:27.879Z,100720.12
2018-05-17T22:07:55.644Z,100723.09
2018-05-17T22:10:23.370Z,100729.44
2018-05-17T22:12:51.063Z,100726.56
2018-05-17T22:15:18.834Z,100725.52
2018-05-17T22:17:46.496Z,100731.02
2018-05-17T22:20:14.264Z,100725.67
2018-05-17T22:22:41.924Z,100730.22
2018-05-17T22:25:09.689Z,100732.95
2018-05-17T22:27:37.353Z,100720.73
2018-05-17T22:30:05.013Z,100731.70
2018-05-17T22:32:32.879Z,100722.42
2018-05-17T22:35:00.650Z,100731.98
2018-05-17T22:37:28.303Z,100732.75
2018-05-17T22:39:55.966Z,100731.64
2018-05-17T22:42:23.834Z,100733.55
2018-05-17T22:44:51.599Z,100727.28
2018-05-17T22:47:19.388Z,100737.48
2018-05-17T22:49:47.132Z,100730.64
2018-05-17T22:52:14.995Z,100733.94
2018-05-17T22:54:42.712Z,100728.53
2018-05-17T22:57:13.390Z,100727.97
2018-05-17T22:59:41.155Z,100727.80
2018-05-17T23:02:08.810Z,100732.37
2018-05-17T23:04:36.528Z,100721.13
2018-05-17T23:07:04.346Z,100728.94
2018-05-17T23:09:32.062Z,100729.22
2018-05-17T23:11:59.776Z,100730.66
2018-05-17T23:14:27.541Z,100726.44
2018-05-17T23:16:55.200Z,100730.17
2018-05-17T23:19:23.028Z,100718.64
2018-05-17T23:21:50.730Z,100723.31
2018-05-17T23:24:18.390Z,100731.75
2018-05-17T23:26:46.053Z,100725.06
2018-05-17T23:29:13.769Z,100731.50
2018-05-17T23:31:41.582Z,100728.05
2018-05-17T23:34:09.245Z,100728.40
2018-05-17T23:36:36.971Z,100719.97
2018-05-17T23:39:04.980Z,100717.67
2018-05-17T23:41:36.743Z,100716.53
2018-05-17T23:44:04.550Z,100720.68
2018-05-17T23:46:32.270Z,100721.80
2018-05-17T23:49:00.026Z,100725.17
2018-05-17T23:51:27.794Z,100725.73
2018-05-17T23:53:55.685Z,100719.13
2018-05-17T23:56:23.325Z,100721.15
2018-05-17T23:58:51.189Z,100723.00
